Time;durP1;ratioP1;P1;durP2;ratioP2;P2;SDS_P1;SDS_P2;PMS_P1;PMS_P2;Temp;Humidity;BMP_temperature;BMP_pressure;BME280_temperature;BME280_humidity;BME280_pressure;Samples;Min_cycle;Max_cycle;Signal;HPM_P1;HPM_P2
2021/06/18 00:01:29;;;;;;;;;;;18.40;99.90;;;;;;4144503;28;19909;-59
2021/06/18 00:03:30;;;;;;;;;;;18.40;99.90;;;;;;4155695;28;20641;-60
2021/06/18 00:05:31;;;;;;;;;;;18.40;99.90;;;;;;4157929;28;19936;-62
2021/06/18 00:07:32;;;;;;;;;;;18.40;99.90;;;;;;4155071;28;19921;-60
2021/06/18 00:09:33;;;;;;;;;;;18.40;99.90;;;;;;4158821;28;19909;-61
2021/06/18 00:11:34;;;;;;;;;;;18.40;99.90;;;;;;4156982;28;19905;-62
2021/06/18 00:13:35;;;;;;;;;;;18.40;99.90;;;;;;4147852;28;20238;-62
2021/06/18 00:15:36;;;;;;;;;;;18.40;99.90;;;;;;4140905;28;19952;-61
2021/06/18 00:17:37;;;;;;;;;;;18.40;99.90;;;;;;4141307;28;19913;-64
2021/06/18 00:19:38;;;;;;;;;;;18.40;99.90;;;;;;4141049;28;19909;-63
2021/06/18 00:21:39;;;;;;;;;;;18.40;99.90;;;;;;4140032;28;19916;-64
2021/06/18 00:23:39;;;;;;;;;;;18.40;99.90;;;;;;4142281;28;19916;-63
2021/06/18 00:25:42;;;;;;;;;;;18.30;99.90;;;;;;4140198;28;20062;-63
2021/06/18 00:27:43;;;;;;;;;;;18.30;99.90;;;;;;4141922;28;19909;-63
2021/06/18 00:29:44;;;;;;;;;;;18.30;99.90;;;;;;4139684;28;19951;-62
2021/06/18 00:31:45;;;;;;;;;;;18.30;99.90;;;;;;4145186;28;19912;-61
2021/06/18 00:33:46;;;;;;;;;;;18.30;99.90;;;;;;4156534;28;19927;-64
2021/06/18 00:35:47;;;;;;;;;;;18.30;99.90;;;;;;4158300;28;19971;-62
2021/06/18 00:37:48;;;;;;;;;;;18.30;99.90;;;;;;4156429;28;20271;-64
2021/06/18 00:39:49;;;;;;;;;;;18.20;99.90;;;;;;4158119;28;19971;-62
2021/06/18 00:41:50;;;;;;;;;;;18.20;99.90;;;;;;4157013;28;19909;-61
2021/06/18 00:43:54;;;;;;;;;;;18.20;99.90;;;;;;4157976;28;20324;-62
2021/06/18 00:45:55;;;;;;;;;;;18.20;99.90;;;;;;4156568;28;19909;-60
2021/06/18 00:47:57;;;;;;;;;;;18.20;99.90;;;;;;4156457;28;19916;-63
2021/06/18 00:49:58;;;;;;;;;;;18.20;99.90;;;;;;4156789;28;20262;-62
2021/06/18 00:51:59;;;;;;;;;;;18.20;99.90;;;;;;4149241;28;19975;-61
2021/06/18 00:54:00;;;;;;;;;;;18.10;99.90;;;;;;4141033;28;20317;-60
2021/06/18 00:56:01;;;;;;;;;;;18.20;99.90;;;;;;4140194;28;19928;-61
2021/06/18 00:58:02;;;;;;;;;;;18.10;99.90;;;;;;4140430;28;19918;-61
2021/06/18 01:00:07;;;;;;;;;;;18.10;99.90;;;;;;4139856;28;19913;-63
2021/06/18 01:02:08;;;;;;;;;;;18.10;99.90;;;;;;4141760;28;19909;-61
2021/06/18 01:04:09;;;;;;;;;;;18.10;99.90;;;;;;4138449;28;19971;-58
2021/06/18 01:06:12;;;;;;;;;;;18.10;99.90;;;;;;4141177;28;20436;-60
2021/06/18 01:08:16;;;;;;;;;;;18.10;99.90;;;;;;4139295;28;20887;-61
2021/06/18 01:10:31;;;;;;;;;;;18.10;99.90;;;;;;4141263;28;19964;-61
2021/06/18 01:12:37;;;;;;;;;;;18.10;99.90;;;;;;4139603;28;19914;-61
2021/06/18 01:14:41;;;;;;;;;;;18.10;99.90;;;;;;4141696;28;19910;-61
2021/06/18 01:16:51;;;;;;;;;;;18.10;99.90;;;;;;4139095;28;19913;-61
2021/06/18 01:19:10;;;;;;;;;;;18.10;99.90;;;;;;4141802;28;19914;-58
2021/06/18 01:21:18;;;;;;;;;;;18.10;99.90;;;;;;4139143;28;19972;-61
2021/06/18 01:23:25;;;;;;;;;;;18.10;99.90;;;;;;4140362;28;19980;-61
2021/06/18 01:25:38;;;;;;;;;;;18.10;99.90;;;;;;4139143;28;19909;-59
2021/06/18 01:28:05;;;;;;;;;;;18.10;99.90;;;;;;4140901;28;19955;-60
2021/06/18 01:30:08;;;;;;;;;;;18.00;99.90;;;;;;4101137;28;19909;-61
2021/06/18 01:32:12;;;;;;;;;;;18.00;99.90;;;;;;4140906;28;19909;-61
2021/06/18 01:34:16;;;;;;;;;;;18.00;99.90;;;;;;4152494;28;19940;-60
2021/06/18 01:36:18;;;;;;;;;;;18.00;99.90;;;;;;4156894;28;20418;-60
2021/06/18 01:38:19;;;;;;;;;;;18.00;99.90;;;;;;4137848;28;19909;-61
2021/06/18 01:40:22;;;;;;;;;;;18.00;99.90;;;;;;4157168;28;19959;-61
2021/06/18 01:42:24;;;;;;;;;;;17.90;99.90;;;;;;4155587;28;19974;-60
2021/06/18 01:44:25;;;;;;;;;;;18.00;99.90;;;;;;4157076;28;19955;-60
2021/06/18 01:46:29;;;;;;;;;;;17.90;99.90;;;;;;4155218;28;19944;-61
2021/06/18 01:48:32;;;;;;;;;;;17.90;99.90;;;;;;4156626;28;19928;-59
2021/06/18 01:50:33;;;;;;;;;;;17.90;99.90;;;;;;4155753;28;19908;-61
2021/06/18 01:52:36;;;;;;;;;;;17.90;99.90;;;;;;4154640;28;20322;-60
2021/06/18 01:54:39;;;;;;;;;;;18.00;99.90;;;;;;4156643;28;19909;-58
2021/06/18 01:56:40;;;;;;;;;;;18.00;99.90;;;;;;4155818;28;20328;-61
2021/06/18 01:58:43;;;;;;;;;;;18.00;99.90;;;;;;4156294;28;19909;-60
2021/06/18 02:00:45;;;;;;;;;;;18.00;99.90;;;;;;4149057;28;19969;-59
2021/06/18 02:02:47;;;;;;;;;;;18.00;99.90;;;;;;4141084;28;19964;-59
2021/06/18 02:04:48;;;;;;;;;;;18.00;99.90;;;;;;4139392;28;19909;-61
2021/06/18 02:06:50;;;;;;;;;;;18.00;99.90;;;;;;4141049;28;19909;-60
2021/06/18 02:08:55;;;;;;;;;;;18.00;99.90;;;;;;4138949;28;19921;-61
2021/06/18 02:10:57;;;;;;;;;;;18.00;99.90;;;;;;4140677;28;19979;-61
2021/06/18 02:12:58;;;;;;;;;;;18.00;99.90;;;;;;4139062;28;19913;-59
2021/06/18 02:14:59;;;;;;;;;;;18.00;99.90;;;;;;4141833;28;19913;-60
2021/06/18 02:17:01;;;;;;;;;;;18.10;99.90;;;;;;4141391;28;19975;-61
2021/06/18 02:19:02;;;;;;;;;;;18.10;99.90;;;;;;4143518;28;20001;-61
2021/06/18 02:21:04;;;;;;;;;;;18.00;99.90;;;;;;4142665;28;19906;-61
2021/06/18 02:23:09;;;;;;;;;;;18.00;99.90;;;;;;4142515;28;19932;-60
2021/06/18 02:25:10;;;;;;;;;;;18.00;99.90;;;;;;4143556;28;19983;-60
2021/06/18 02:27:12;;;;;;;;;;;18.00;99.90;;;;;;4142692;28;19909;-61
2021/06/18 02:29:13;;;;;;;;;;;18.00;99.90;;;;;;4142430;28;19924;-59
2021/06/18 02:31:14;;;;;;;;;;;18.00;99.90;;;;;;4142101;28;19940;-61
2021/06/18 02:33:15;;;;;;;;;;;18.10;99.90;;;;;;4143601;28;20427;-61
2021/06/18 02:35:16;;;;;;;;;;;18.10;99.90;;;;;;4141257;28;19960;-62
2021/06/18 02:37:19;;;;;;;;;;;18.10;99.90;;;;;;4142930;28;19917;-61
2021/06/18 02:39:20;;;;;;;;;;;18.10;99.90;;;;;;4141708;28;20336;-62
2021/06/18 02:41:21;;;;;;;;;;;18.00;99.90;;;;;;4143707;28;20350;-60
2021/06/18 02:43:21;;;;;;;;;;;18.10;99.90;;;;;;4149119;28;19913;-63
2021/06/18 02:45:22;;;;;;;;;;;18.00;99.90;;;;;;4159585;28;19909;-63
2021/06/18 02:47:28;;;;;;;;;;;18.00;99.90;;;;;;4158270;28;19920;-61
2021/06/18 02:49:34;;;;;;;;;;;18.00;99.90;;;;;;4159350;28;20639;-61
2021/06/18 02:51:35;;;;;;;;;;;18.00;99.90;;;;;;4157893;28;20324;-60
2021/06/18 02:53:44;;;;;;;;;;;18.00;99.90;;;;;;4158949;28;19909;-61
2021/06/18 02:55:50;;;;;;;;;;;18.10;99.90;;;;;;4157588;28;19959;-61
2021/06/18 02:57:53;;;;;;;;;;;18.10;99.90;;;;;;4149651;28;19940;-61
2021/06/18 03:00:06;;;;;;;;;;;18.10;99.90;;;;;;4141722;28;19961;-59
2021/06/18 03:02:13;;;;;;;;;;;18.10;99.90;;;;;;4142413;28;20345;-61
2021/06/18 03:04:22;;;;;;;;;;;18.00;99.90;;;;;;4141570;28;20416;-61
2021/06/18 03:06:23;;;;;;;;;;;18.00;99.90;;;;;;4141767;28;19960;-64
2021/06/18 03:08:25;;;;;;;;;;;18.00;99.90;;;;;;4141740;28;19921;-61
2021/06/18 03:10:27;;;;;;;;;;;18.00;99.90;;;;;;4141899;28;19955;-63
2021/06/18 03:12:30;;;;;;;;;;;18.00;99.90;;;;;;4142239;28;19960;-61
2021/06/18 03:14:35;;;;;;;;;;;18.00;99.90;;;;;;4140566;28;19910;-61
2021/06/18 03:16:37;;;;;;;;;;;18.00;99.90;;;;;;4142852;28;20334;-63
2021/06/18 03:18:40;;;;;;;;;;;18.00;99.90;;;;;;4140568;28;20491;-61
2021/06/18 03:20:42;;;;;;;;;;;18.00;99.90;;;;;;4142620;28;20366;-60
2021/06/18 03:22:44;;;;;;;;;;;18.10;99.90;;;;;;4139832;28;19979;-62
2021/06/18 03:24:45;;;;;;;;;;;18.10;99.90;;;;;;4142468;28;20011;-61
2021/06/18 03:26:46;;;;;;;;;;;18.10;99.90;;;;;;4140996;28;20353;-63
2021/06/18 03:28:47;;;;;;;;;;;18.00;99.90;;;;;;4142234;28;19909;-62
2021/06/18 03:30:49;;;;;;;;;;;18.00;99.90;;;;;;4141219;28;19975;-61
2021/06/18 03:32:51;;;;;;;;;;;18.00;99.90;;;;;;4124334;28;19909;-61
2021/06/18 03:34:53;;;;;;;;;;;17.90;99.90;;;;;;4140579;28;19956;-61
2021/06/18 03:36:55;;;;;;;;;;;18.00;99.90;;;;;;4141519;28;19920;-62
2021/06/18 03:38:56;;;;;;;;;;;17.90;99.90;;;;;;4151689;28;19967;-61
2021/06/18 03:40:57;;;;;;;;;;;17.90;99.90;;;;;;4157748;28;19978;-62
2021/06/18 03:42:58;;;;;;;;;;;17.90;99.90;;;;;;4157954;28;19909;-62
2021/06/18 03:45:01;;;;;;;;;;;18.00;99.90;;;;;;4157215;28;19905;-63
2021/06/18 03:47:04;;;;;;;;;;;18.00;99.90;;;;;;4157408;28;19909;-62
2021/06/18 03:49:05;;;;;;;;;;;18.00;99.90;;;;;;4156658;28;19913;-61
2021/06/18 03:51:06;;;;;;;;;;;18.20;99.90;;;;;;4157863;28;19909;-64
2021/06/18 03:53:08;;;;;;;;;;;18.20;99.90;;;;;;4157139;28;20692;-63
2021/06/18 03:55:10;;;;;;;;;;;18.30;99.90;;;;;;4158664;28;19913;-61
2021/06/18 03:57:13;;;;;;;;;;;18.30;99.90;;;;;;4155874;28;19975;-60
2021/06/18 03:59:15;;;;;;;;;;;18.30;99.90;;;;;;4153482;28;19913;-61
2021/06/18 04:01:16;;;;;;;;;;;18.40;99.90;;;;;;4148403;28;19909;-60
2021/06/18 04:03:19;;;;;;;;;;;18.40;99.90;;;;;;4157268;28;19913;-62
2021/06/18 04:05:21;;;;;;;;;;;18.40;99.90;;;;;;4157028;28;19988;-62
2021/06/18 04:07:22;;;;;;;;;;;18.40;99.90;;;;;;4145066;28;19959;-61
2021/06/18 04:09:23;;;;;;;;;;;18.40;99.90;;;;;;4139541;28;19983;-60
2021/06/18 04:11:24;;;;;;;;;;;18.50;99.90;;;;;;4141337;28;19964;-59
2021/06/18 04:13:25;;;;;;;;;;;18.50;99.90;;;;;;4140460;28;20329;-59
2021/06/18 04:15:27;;;;;;;;;;;18.60;99.90;;;;;;4143253;28;19956;-60
2021/06/18 04:17:28;;;;;;;;;;;18.60;99.90;;;;;;4143302;28;19979;-62
2021/06/18 04:19:30;;;;;;;;;;;18.60;99.90;;;;;;4139940;28;20253;-62
2021/06/18 04:21:31;;;;;;;;;;;18.70;99.90;;;;;;4140458;28;19913;-62
2021/06/18 04:23:32;;;;;;;;;;;18.70;99.90;;;;;;4138570;28;20365;-61
2021/06/18 04:25:33;;;;;;;;;;;18.80;99.90;;;;;;4158297;28;19959;-59
2021/06/18 04:27:34;;;;;;;;;;;18.80;99.90;;;;;;4155784;28;19983;-61
2021/06/18 04:29:35;;;;;;;;;;;18.80;99.90;;;;;;4157035;28;19917;-60
2021/06/18 04:31:36;;;;;;;;;;;18.80;99.90;;;;;;4155229;28;20369;-62
2021/06/18 04:33:37;;;;;;;;;;;18.80;99.90;;;;;;4152394;28;19974;-60
2021/06/18 04:35:38;;;;;;;;;;;18.80;99.90;;;;;;4139713;28;19921;-59
2021/06/18 04:37:41;;;;;;;;;;;18.80;99.90;;;;;;4140808;28;19917;-60
2021/06/18 04:39:42;;;;;;;;;;;18.90;99.90;;;;;;4137889;28;20001;-62
2021/06/18 04:41:43;;;;;;;;;;;18.90;99.90;;;;;;4140701;28;19909;-62
2021/06/18 04:43:44;;;;;;;;;;;18.90;99.90;;;;;;4121644;28;20341;-61
2021/06/18 04:45:45;;;;;;;;;;;19.00;99.90;;;;;;4140852;28;19916;-61
2021/06/18 04:47:47;;;;;;;;;;;19.00;99.90;;;;;;4151400;28;20262;-61
2021/06/18 04:49:47;;;;;;;;;;;19.00;99.90;;;;;;4143792;28;19991;-66
2021/06/18 04:51:48;;;;;;;;;;;19.00;99.90;;;;;;4140623;28;19909;-61
2021/06/18 04:53:53;;;;;;;;;;;19.00;99.90;;;;;;4139778;28;19905;-55
2021/06/18 04:55:54;;;;;;;;;;;19.00;99.90;;;;;;4141715;28;19968;-61
2021/06/18 04:57:55;;;;;;;;;;;19.10;99.90;;;;;;4139384;28;19917;-56
2021/06/18 04:59:56;;;;;;;;;;;19.20;99.90;;;;;;4141513;28;20388;-61
2021/06/18 05:01:57;;;;;;;;;;;19.20;99.90;;;;;;4138774;28;19979;-60
2021/06/18 05:03:58;;;;;;;;;;;19.20;99.90;;;;;;4140438;28;19910;-61
2021/06/18 05:05:59;;;;;;;;;;;19.30;99.90;;;;;;4139084;28;19909;-58
2021/06/18 05:08:00;;;;;;;;;;;19.30;99.90;;;;;;4140756;28;20465;-60
2021/06/18 05:10:01;;;;;;;;;;;19.30;99.90;;;;;;4138448;28;19910;-61
2021/06/18 05:12:02;;;;;;;;;;;19.30;99.90;;;;;;4140838;28;19905;-61
2021/06/18 05:14:03;;;;;;;;;;;19.20;99.90;;;;;;4139416;28;19905;-62
2021/06/18 05:16:04;;;;;;;;;;;19.20;99.90;;;;;;4140048;28;20077;-60
2021/06/18 05:18:05;;;;;;;;;;;19.10;99.90;;;;;;4139761;28;20039;-60
2021/06/18 05:20:06;;;;;;;;;;;19.20;99.90;;;;;;4138130;28;19909;-61
2021/06/18 05:22:07;;;;;;;;;;;19.20;99.90;;;;;;4140848;28;20227;-60
2021/06/18 05:24:09;;;;;;;;;;;19.20;99.90;;;;;;4139278;28;19968;-60
2021/06/18 05:26:10;;;;;;;;;;;19.30;99.90;;;;;;4140333;28;19909;-60
2021/06/18 05:28:11;;;;;;;;;;;19.40;99.90;;;;;;4138881;28;20699;-61
2021/06/18 05:30:14;;;;;;;;;;;19.50;99.90;;;;;;4140098;28;19956;-59
2021/06/18 05:32:16;;;;;;;;;;;19.50;99.90;;;;;;4139276;28;19917;-60
2021/06/18 05:34:17;;;;;;;;;;;19.60;99.90;;;;;;4139767;28;20432;-59
2021/06/18 05:36:18;;;;;;;;;;;19.70;99.90;;;;;;4138888;28;19931;-60
2021/06/18 05:38:19;;;;;;;;;;;19.90;99.90;;;;;;4140071;28;19918;-60
2021/06/18 05:40:20;;;;;;;;;;;20.00;99.90;;;;;;4139069;28;20354;-59
2021/06/18 05:42:21;;;;;;;;;;;20.10;99.90;;;;;;4140151;28;20008;-60
2021/06/18 05:44:22;;;;;;;;;;;20.20;99.90;;;;;;4139335;28;19905;-60
2021/06/18 05:46:23;;;;;;;;;;;20.20;99.90;;;;;;4140361;28;19914;-61
2021/06/18 05:48:24;;;;;;;;;;;20.20;99.90;;;;;;4139525;28;19913;-59
2021/06/18 05:50:25;;;;;;;;;;;20.30;99.90;;;;;;4138879;28;19910;-61
2021/06/18 05:52:26;;;;;;;;;;;20.30;99.90;;;;;;4143293;28;20294;-61
2021/06/18 05:54:26;;;;;;;;;;;20.20;99.90;;;;;;4142724;28;19913;-61
2021/06/18 05:56:27;;;;;;;;;;;20.20;99.90;;;;;;4144019;28;19963;-59
2021/06/18 05:58:28;;;;;;;;;;;20.10;99.90;;;;;;4141786;28;20330;-61
2021/06/18 06:00:29;;;;;;;;;;;20.10;99.90;;;;;;4143706;28;19917;-61
2021/06/18 06:02:30;;;;;;;;;;;20.20;99.90;;;;;;4142094;28;19914;-60
2021/06/18 06:04:31;;;;;;;;;;;20.30;99.90;;;;;;4143829;28;19906;-61
2021/06/18 06:06:32;;;;;;;;;;;20.30;99.90;;;;;;4142311;28;19909;-61
2021/06/18 06:08:33;;;;;;;;;;;20.30;99.90;;;;;;4143117;28;20032;-61
2021/06/18 06:10:34;;;;;;;;;;;20.30;99.90;;;;;;4142014;28;19981;-61
2021/06/18 06:12:35;;;;;;;;;;;20.30;99.90;;;;;;4142888;28;19912;-59
2021/06/18 06:14:36;;;;;;;;;;;20.30;99.90;;;;;;4141465;28;19932;-61
2021/06/18 06:16:37;;;;;;;;;;;20.30;99.90;;;;;;4141910;28;19909;-59
2021/06/18 06:18:37;;;;;;;;;;;20.40;99.90;;;;;;4142585;28;19917;-60
2021/06/18 06:20:40;;;;;;;;;;;20.50;99.90;;;;;;4141954;28;19913;-62
2021/06/18 06:22:41;;;;;;;;;;;20.50;99.90;;;;;;4141846;28;20385;-58
2021/06/18 06:24:42;;;;;;;;;;;20.70;99.90;;;;;;4141944;28;19955;-62
2021/06/18 06:26:43;;;;;;;;;;;20.80;99.90;;;;;;4142944;28;19913;-61
2021/06/18 06:28:44;;;;;;;;;;;20.90;99.90;;;;;;4140262;28;19909;-58
2021/06/18 06:30:45;;;;;;;;;;;20.90;99.90;;;;;;4142917;28;20388;-61
2021/06/18 06:32:46;;;;;;;;;;;20.90;99.90;;;;;;4141387;28;19909;-63
2021/06/18 06:34:47;;;;;;;;;;;20.90;99.90;;;;;;4143399;28;20418;-59
2021/06/18 06:36:48;;;;;;;;;;;20.90;99.90;;;;;;4141352;28;20344;-60
2021/06/18 06:38:51;;;;;;;;;;;21.00;99.90;;;;;;4143386;28;19918;-62
2021/06/18 06:40:52;;;;;;;;;;;21.10;99.90;;;;;;4140195;28;19913;-61
2021/06/18 06:42:53;;;;;;;;;;;21.20;99.90;;;;;;4142731;28;19953;-62
2021/06/18 06:44:54;;;;;;;;;;;21.30;99.90;;;;;;4140823;28;19916;-62
2021/06/18 06:46:55;;;;;;;;;;;21.50;99.90;;;;;;4141796;28;19917;-61
2021/06/18 06:48:56;;;;;;;;;;;21.70;99.90;;;;;;4141833;28;19912;-62
2021/06/18 06:50:58;;;;;;;;;;;21.80;99.90;;;;;;4140955;28;19909;-62
2021/06/18 06:52:59;;;;;;;;;;;21.90;99.90;;;;;;4142429;28;19909;-60
2021/06/18 06:55:00;;;;;;;;;;;22.00;99.90;;;;;;4141218;28;19971;-61
2021/06/18 06:57:01;;;;;;;;;;;22.00;99.90;;;;;;4143055;28;19955;-61
2021/06/18 06:59:02;;;;;;;;;;;22.20;99.90;;;;;;4141668;28;19919;-61
2021/06/18 07:01:03;;;;;;;;;;;22.20;99.90;;;;;;4142815;28;19956;-60
2021/06/18 07:03:04;;;;;;;;;;;22.30;99.90;;;;;;4139875;28;19956;-60
2021/06/18 07:05:06;;;;;;;;;;;22.40;99.90;;;;;;4141651;28;20346;-61
2021/06/18 07:07:06;;;;;;;;;;;22.50;99.90;;;;;;4140071;28;19910;-61
2021/06/18 07:09:08;;;;;;;;;;;22.70;99.90;;;;;;4140932;28;19929;-62
2021/06/18 07:11:09;;;;;;;;;;;23.00;99.90;;;;;;4140502;28;19996;-61
2021/06/18 07:13:10;;;;;;;;;;;23.30;99.90;;;;;;4142690;28;19909;-63
2021/06/18 07:15:11;;;;;;;;;;;23.90;99.90;;;;;;4140372;28;19913;-59
2021/06/18 07:17:12;;;;;;;;;;;24.40;99.90;;;;;;4140718;28;20362;-62
2021/06/18 07:19:13;;;;;;;;;;;24.90;99.90;;;;;;4140564;28;19909;-60
2021/06/18 07:21:14;;;;;;;;;;;25.40;99.90;;;;;;4140681;28;19910;-61
2021/06/18 07:23:15;;;;;;;;;;;25.70;99.90;;;;;;4141512;28;20004;-63
2021/06/18 07:25:16;;;;;;;;;;;25.90;99.90;;;;;;4140345;28;19913;-62
2021/06/18 07:27:17;;;;;;;;;;;26.00;99.90;;;;;;4141996;28;19909;-60
2021/06/18 07:29:17;;;;;;;;;;;26.10;99.90;;;;;;4139689;28;19916;-62
2021/06/18 07:31:19;;;;;;;;;;;26.00;99.90;;;;;;4141937;28;19916;-60
2021/06/18 07:33:19;;;;;;;;;;;25.90;99.90;;;;;;4140155;28;20066;-61
2021/06/18 07:35:21;;;;;;;;;;;26.10;99.90;;;;;;4141375;28;19910;-61
2021/06/18 07:37:22;;;;;;;;;;;26.40;99.90;;;;;;4140710;28;19909;-61
2021/06/18 07:39:23;;;;;;;;;;;26.70;99.40;;;;;;4141454;28;19935;-61
2021/06/18 07:41:24;;;;;;;;;;;27.00;98.50;;;;;;4140670;28;19910;-60
2021/06/18 07:43:28;;;;;;;;;;;27.20;97.80;;;;;;4141603;28;19905;-62
2021/06/18 07:45:29;;;;;;;;;;;27.40;97.20;;;;;;4140556;28;19963;-60
2021/06/18 07:47:30;;;;;;;;;;;27.70;96.90;;;;;;4139013;28;19913;-61
2021/06/18 07:49:31;;;;;;;;;;;27.90;96.30;;;;;;4140975;28;19909;-62
2021/06/18 07:51:32;;;;;;;;;;;28.00;96.20;;;;;;4141129;28;19913;-62
2021/06/18 07:53:33;;;;;;;;;;;28.30;95.80;;;;;;4140659;28;20413;-60
2021/06/18 07:55:34;;;;;;;;;;;28.40;94.80;;;;;;4140206;28;19949;-61
2021/06/18 07:57:36;;;;;;;;;;;28.30;94.00;;;;;;4140556;28;19913;-60
2021/06/18 07:59:37;;;;;;;;;;;28.20;94.40;;;;;;4121834;28;20402;-60
2021/06/18 08:01:38;;;;;;;;;;;27.70;94.00;;;;;;4123351;28;19916;-61
2021/06/18 08:03:38;;;;;;;;;;;27.50;94.60;;;;;;4140166;28;20381;-62
2021/06/18 08:05:39;;;;;;;;;;;27.50;93.90;;;;;;4141424;28;19910;-61
2021/06/18 08:07:41;;;;;;;;;;;27.50;93.50;;;;;;4139745;28;19928;-61
2021/06/18 08:09:42;;;;;;;;;;;27.60;93.70;;;;;;4141843;28;19975;-61
2021/06/18 08:11:43;;;;;;;;;;;27.80;93.60;;;;;;4140156;28;20363;-62
2021/06/18 08:13:44;;;;;;;;;;;27.80;93.40;;;;;;4141508;28;19989;-61
2021/06/18 08:15:45;;;;;;;;;;;27.70;93.10;;;;;;4140121;28;19964;-63
2021/06/18 08:17:46;;;;;;;;;;;27.40;92.20;;;;;;4140207;28;19928;-60
2021/06/18 08:19:47;;;;;;;;;;;27.10;92.40;;;;;;4140347;28;20357;-63
2021/06/18 08:21:48;;;;;;;;;;;27.00;92.70;;;;;;4140336;28;19963;-60
2021/06/18 08:23:49;;;;;;;;;;;27.00;93.00;;;;;;4140234;28;19919;-60
2021/06/18 08:25:50;;;;;;;;;;;27.00;92.90;;;;;;4140331;28;20372;-61
2021/06/18 08:27:51;;;;;;;;;;;27.00;93.00;;;;;;4141549;28;19910;-61
2021/06/18 08:29:52;;;;;;;;;;;27.10;92.80;;;;;;4138613;28;19987;-61
2021/06/18 08:31:53;;;;;;;;;;;27.30;93.00;;;;;;4141102;28;20618;-61
2021/06/18 08:33:56;;;;;;;;;;;27.60;92.90;;;;;;4139590;28;19917;-61
2021/06/18 08:35:57;;;;;;;;;;;27.60;92.20;;;;;;4140825;28;19909;-62
2021/06/18 08:38:01;;;;;;;;;;;27.30;92.00;;;;;;4138897;28;19918;-61
2021/06/18 08:40:03;;;;;;;;;;;27.20;92.20;;;;;;4140206;28;20350;-61
2021/06/18 08:42:04;;;;;;;;;;;27.10;92.30;;;;;;4138612;28;19966;-63
2021/06/18 08:44:05;;;;;;;;;;;27.20;92.10;;;;;;4140250;28;19979;-62
2021/06/18 08:46:07;;;;;;;;;;;27.00;92.50;;;;;;4139118;28;19960;-60
2021/06/18 08:48:08;;;;;;;;;;;27.00;92.80;;;;;;4140639;28;19913;-63
2021/06/18 08:50:09;;;;;;;;;;;27.20;92.80;;;;;;4139205;28;19909;-61
2021/06/18 08:52:10;;;;;;;;;;;27.00;92.10;;;;;;4139266;28;20325;-63
2021/06/18 08:54:11;;;;;;;;;;;27.00;92.20;;;;;;4139925;28;19906;-62
2021/06/18 08:56:12;;;;;;;;;;;27.00;92.10;;;;;;4140252;28;19959;-62
2021/06/18 08:58:13;;;;;;;;;;;27.10;91.90;;;;;;4140065;28;20354;-59
2021/06/18 09:00:15;;;;;;;;;;;27.10;92.20;;;;;;4139162;28;19906;-62
2021/06/18 09:02:17;;;;;;;;;;;27.20;92.20;;;;;;4139968;28;19969;-61
2021/06/18 09:04:17;;;;;;;;;;;27.30;92.40;;;;;;4138204;28;19921;-60
2021/06/18 09:06:18;;;;;;;;;;;27.30;92.30;;;;;;4140040;28;19909;-61
2021/06/18 09:08:19;;;;;;;;;;;27.30;92.20;;;;;;4138338;28;19955;-61
2021/06/18 09:10:21;;;;;;;;;;;27.30;91.90;;;;;;4140874;28;19920;-62
2021/06/18 09:12:22;;;;;;;;;;;27.30;89.00;;;;;;4138985;28;19913;-61
2021/06/18 09:14:32;;;;;;;;;;;27.10;89.30;;;;;;4140575;28;20358;-62
2021/06/18 09:16:34;;;;;;;;;;;27.00;90.00;;;;;;4139190;28;19933;-61
2021/06/18 09:18:39;;;;;;;;;;;27.00;89.60;;;;;;4121759;28;19922;-62
2021/06/18 09:20:40;;;;;;;;;;;27.00;89.80;;;;;;4137462;28;20003;-62
2021/06/18 09:22:42;;;;;;;;;;;27.00;90.50;;;;;;4138670;28;19910;-61
2021/06/18 09:24:46;;;;;;;;;;;27.10;90.30;;;;;;4138142;28;19917;-62
2021/06/18 09:26:47;;;;;;;;;;;27.20;90.50;;;;;;4138854;28;20362;-61
2021/06/18 09:29:03;;;;;;;;;;;27.40;90.00;;;;;;4140089;28;19910;-62
2021/06/18 09:31:05;;;;;;;;;;;27.50;90.20;;;;;;4138702;28;20408;-61
2021/06/18 09:33:19;;;;;;;;;;;27.60;89.60;;;;;;4139574;28;20405;-60
2021/06/18 09:35:19;;;;;;;;;;;27.40;89.80;;;;;;4138398;28;19910;-60
2021/06/18 09:37:22;;;;;;;;;;;27.50;88.80;;;;;;4138893;28;20381;-61
2021/06/18 09:39:23;;;;;;;;;;;27.40;88.30;;;;;;4138182;28;19932;-63
2021/06/18 09:41:38;;;;;;;;;;;27.20;86.90;;;;;;4139838;28;20411;-61
2021/06/18 09:43:43;;;;;;;;;;;27.10;88.80;;;;;;4138735;28;19913;-61
2021/06/18 09:45:45;;;;;;;;;;;27.10;89.30;;;;;;4139327;28;19913;-61
2021/06/18 09:47:45;;;;;;;;;;;27.20;89.90;;;;;;4137979;28;19909;-63
2021/06/18 09:49:47;;;;;;;;;;;27.30;87.90;;;;;;4139474;28;20995;-59
2021/06/18 09:51:54;;;;;;;;;;;27.20;89.10;;;;;;4137637;28;20277;-61
2021/06/18 09:53:55;;;;;;;;;;;27.30;88.90;;;;;;4139847;28;19913;-64
2021/06/18 09:55:59;;;;;;;;;;;27.30;89.80;;;;;;4138486;28;19921;-61
2021/06/18 09:58:00;;;;;;;;;;;27.50;87.60;;;;;;4139637;28;19917;-61
2021/06/18 10:00:04;;;;;;;;;;;27.50;86.60;;;;;;4138339;28;19910;-62
2021/06/18 10:02:05;;;;;;;;;;;27.40;87.30;;;;;;4139813;28;19996;-62
2021/06/18 10:04:13;;;;;;;;;;;27.50;88.30;;;;;;4138421;28;19941;-59
2021/06/18 10:06:14;;;;;;;;;;;27.70;86.90;;;;;;4139380;28;19909;-59
2021/06/18 10:08:15;;;;;;;;;;;27.60;85.00;;;;;;4138503;28;19921;-59
2021/06/18 10:10:17;;;;;;;;;;;27.60;85.20;;;;;;4140035;28;20441;-61
2021/06/18 10:12:19;;;;;;;;;;;27.50;86.20;;;;;;4138777;28;19960;-62
2021/06/18 10:14:20;;;;;;;;;;;27.40;86.20;;;;;;4139362;28;20334;-60
2021/06/18 10:16:22;;;;;;;;;;;27.30;86.70;;;;;;4138431;28;19901;-62
2021/06/18 10:18:23;;;;;;;;;;;27.30;87.90;;;;;;4137913;28;20320;-63
2021/06/18 10:20:28;;;;;;;;;;;27.40;87.50;;;;;;4139982;28;19909;-61
2021/06/18 10:22:45;;;;;;;;;;;27.60;89.20;;;;;;4137870;28;19976;-61
2021/06/18 10:24:51;;;;;;;;;;;27.70;85.80;;;;;;4138316;28;19909;-62
2021/06/18 10:26:52;;;;;;;;;;;27.50;86.30;;;;;;4138339;28;19924;-62
2021/06/18 10:28:56;;;;;;;;;;;27.50;87.30;;;;;;4139909;28;19968;-62
2021/06/18 10:30:58;;;;;;;;;;;27.50;87.40;;;;;;4137538;28;19955;-61
2021/06/18 10:33:00;;;;;;;;;;;27.50;87.50;;;;;;4139405;28;19905;-61
2021/06/18 10:35:03;;;;;;;;;;;27.50;87.10;;;;;;4137463;28;19910;-61
2021/06/18 10:37:20;;;;;;;;;;;27.50;87.60;;;;;;4140647;28;19956;-62
2021/06/18 10:39:21;;;;;;;;;;;27.50;87.10;;;;;;4140772;28;19917;-61
2021/06/18 10:41:26;;;;;;;;;;;27.60;87.20;;;;;;4124415;28;20483;-61
2021/06/18 10:43:43;;;;;;;;;;;27.70;88.40;;;;;;4141311;28;19963;-60
2021/06/18 10:45:59;;;;;;;;;;;27.70;87.90;;;;;;4143195;28;19909;-58
2021/06/18 10:48:00;;;;;;;;;;;27.80;87.00;;;;;;4141338;28;19976;-59
2021/06/18 10:50:02;;;;;;;;;;;27.80;85.30;;;;;;4143126;28;20328;-63
2021/06/18 10:52:14;;;;;;;;;;;27.70;85.30;;;;;;4140798;28;19909;-60
2021/06/18 10:54:37;;;;;;;;;;;27.70;84.70;;;;;;4141413;28;19918;-60
2021/06/18 10:56:46;;;;;;;;;;;27.60;84.00;;;;;;4141062;28;20258;-60
2021/06/18 10:59:09;;;;;;;;;;;27.60;84.30;;;;;;4143002;28;20255;-62
2021/06/18 11:01:29;;;;;;;;;;;27.70;84.30;;;;;;4140903;28;20656;-61
2021/06/18 11:03:48;;;;;;;;;;;27.80;85.90;;;;;;4142008;28;19910;-63
2021/06/18 11:05:49;;;;;;;;;;;28.00;85.60;;;;;;4140016;28;19956;-59
2021/06/18 11:07:50;;;;;;;;;;;28.20;83.90;;;;;;4142451;28;20297;-61
2021/06/18 11:09:54;;;;;;;;;;;28.20;83.80;;;;;;4140953;28;20340;-62
2021/06/18 11:11:55;;;;;;;;;;;28.00;83.00;;;;;;4142913;28;19909;-62
2021/06/18 11:14:06;;;;;;;;;;;27.80;83.60;;;;;;4141155;28;19913;-61
2021/06/18 11:16:08;;;;;;;;;;;27.90;85.00;;;;;;4142529;28;19968;-61
2021/06/18 11:18:17;;;;;;;;;;;28.10;83.70;;;;;;4140885;28;19955;-60
2021/06/18 11:20:20;;;;;;;;;;;28.10;84.00;;;;;;4142030;28;19910;-61
2021/06/18 11:22:34;;;;;;;;;;;28.20;83.40;;;;;;4139659;28;20269;-61
2021/06/18 11:24:39;;;;;;;;;;;28.30;84.90;;;;;;4142171;28;19971;-59
2021/06/18 11:26:39;;;;;;;;;;;28.30;83.20;;;;;;4139818;28;20533;-61
2021/06/18 11:28:46;;;;;;;;;;;28.30;82.40;;;;;;4142523;28;19920;-60
2021/06/18 11:30:51;;;;;;;;;;;28.30;81.30;;;;;;4140502;28;20313;-60
2021/06/18 11:32:52;;;;;;;;;;;28.40;81.90;;;;;;4141353;28;19909;-62
2021/06/18 11:34:53;;;;;;;;;;;28.30;81.80;;;;;;4139472;28;19913;-61
2021/06/18 11:36:54;;;;;;;;;;;28.40;79.90;;;;;;4141869;28;19909;-60
2021/06/18 11:38:58;;;;;;;;;;;28.30;78.40;;;;;;4139848;28;19967;-61
2021/06/18 11:41:00;;;;;;;;;;;28.20;78.00;;;;;;4141476;28;19991;-60
2021/06/18 11:43:01;;;;;;;;;;;28.20;79.00;;;;;;4140031;28;19925;-60
2021/06/18 11:45:04;;;;;;;;;;;28.20;77.80;;;;;;4140807;28;19916;-60
2021/06/18 11:47:05;;;;;;;;;;;28.30;78.60;;;;;;4140496;28;20409;-61
2021/06/18 11:49:09;;;;;;;;;;;28.40;78.80;;;;;;4139330;28;19913;-60
2021/06/18 11:51:23;;;;;;;;;;;28.60;78.50;;;;;;4141923;28;19909;-61
2021/06/18 11:53:34;;;;;;;;;;;28.70;79.20;;;;;;4139879;28;19909;-61